createdAt,value
2022-09-17T00:01:31.805Z,99719.63
2022-09-17T00:04:05.529Z,99712.38
2022-09-17T00:06:35.454Z,99702.34
2022-09-17T00:09:06.468Z,99708.41
2022-09-17T00:11:36.855Z,99704.84
2022-09-17T00:14:07.156Z,99713.47
2022-09-17T00:16:39.239Z,99706.28
2022-09-17T00:19:10.795Z,99687.91
2022-09-17T00:21:38.275Z,99679.78
2022-09-17T00:24:07.342Z,99674.22
2022-09-17T00:26:36.783Z,99684.06
2022-09-17T00:29:05.976Z,99700.13
2022-09-17T00:31:35.411Z,99699.13
2022-09-17T00:34:05.312Z,99701.31
2022-09-17T00:36:36.863Z,99707.75
2022-09-17T00:39:06.603Z,99705.81
2022-09-17T00:41:36.309Z,99710.78
2022-09-17T00:44:41.283Z,99715.34
2022-09-17T00:47:17.289Z,99716.41
2022-09-17T00:49:46.393Z,99728.31
2022-09-17T00:52:22.200Z,99723.72
2022-09-17T00:54:56.807Z,99724.38
2022-09-17T00:57:24.864Z,99721.06
2022-09-17T00:59:52.824Z,99721.75
2022-09-17T01:02:20.801Z,99707.75
2022-09-17T01:04:48.922Z,99709.63
2022-09-17T01:07:38.222Z,99707.47
2022-09-17T01:11:04.498Z,99703.66
2022-09-17T01:13:52.913Z,99716.47
2022-09-17T01:16:32.359Z,99712.19
2022-09-17T01:19:44.647Z,99710.56
2022-09-17T01:22:34.434Z,99697.91
2022-09-17T01:25:25.794Z,99700.59
2022-09-17T01:28:25.209Z,99698.59
2022-09-17T01:31:01.597Z,99699.50
2022-09-17T01:33:39.901Z,99701.81
2022-09-17T01:36:40.032Z,99707.66
2022-09-17T01:39:20.755Z,99708.19
2022-09-17T01:41:48.296Z,99716.00
2022-09-17T01:44:26.064Z,99721.16
2022-09-17T01:46:59.049Z,99717.66
2022-09-17T01:49:28.413Z,99718.75
2022-09-17T01:51:56.967Z,99714.31
2022-09-17T01:54:38.034Z,99707.00
2022-09-17T01:57:15.339Z,99706.06
2022-09-17T01:59:55.561Z,99699.94
2022-09-17T02:02:46.489Z,99693.16
2022-09-17T02:05:46.356Z,99696.00
2022-09-17T02:08:24.612Z,99712.22
2022-09-17T02:11:14.616Z,99711.41
2022-09-17T02:14:03.273Z,99716.72
2022-09-17T02:16:34.758Z,99729.72
2022-09-17T02:19:18.720Z,99724.91
2022-09-17T02:21:48.332Z,99724.25
2022-09-17T02:24:27.912Z,99718.78
2022-09-17T02:27:12.016Z,99709.97
2022-09-17T02:29:42.138Z,99708.19
2022-09-17T02:32:11.317Z,99707.22
2022-09-17T02:34:39.649Z,99691.06
2022-09-17T02:37:08.647Z,99695.03
2022-09-17T02:39:36.657Z,99676.69
2022-09-17T02:42:23.320Z,99675.72
2022-09-17T02:44:59.516Z,99674.22
2022-09-17T02:47:59.150Z,99664.97
2022-09-17T02:51:06.956Z,99674.63
2022-09-17T02:54:10.112Z,99682.59
2022-09-17T02:56:57.269Z,99679.13
2022-09-17T02:59:42.513Z,99678.94
2022-09-17T03:02:33.537Z,99668.09
2022-09-17T03:05:03.652Z,99667.94
2022-09-17T03:07:32.717Z,99659.28
2022-09-17T03:10:00.776Z,99653.22
2022-09-17T03:12:28.453Z,99658.50
2022-09-17T03:14:56.398Z,99647.28
2022-09-17T03:17:23.900Z,99644.19
2022-09-17T03:19:51.954Z,99641.25
2022-09-17T03:22:20.142Z,99640.38
2022-09-17T03:24:47.710Z,99637.56
2022-09-17T03:27:15.219Z,99644.13
2022-09-17T03:29:42.797Z,99635.22
2022-09-17T03:32:11.451Z,99642.75
2022-09-17T03:34:39.457Z,99627.66
2022-09-17T03:37:06.984Z,99634.31
2022-09-17T03:39:34.657Z,99630.75
2022-09-17T03:42:02.552Z,99608.03
2022-09-17T03:44:30.080Z,99616.00
2022-09-17T03:46:58.152Z,99635.69
2022-09-17T03:49:26.062Z,99628.28
2022-09-17T03:51:54.108Z,99641.00
2022-09-17T03:54:21.673Z,99643.97
2022-09-17T03:56:49.141Z,99661.53
2022-09-17T03:59:17.301Z,99680.34
2022-09-17T04:01:45.316Z,99678.63
2022-09-17T04:04:12.955Z,99677.13
2022-09-17T04:06:40.458Z,99659.50
2022-09-17T04:09:08.943Z,99651.25
2022-09-17T04:11:36.518Z,99658.94
2022-09-17T04:14:04.159Z,99650.78
2022-09-17T04:16:31.735Z,99670.00
2022-09-17T04:18:59.569Z,99677.59
2022-09-17T04:21:27.265Z,99698.31
2022-09-17T04:23:54.813Z,99696.81
2022-09-17T04:26:22.691Z,99704.44
2022-09-17T04:28:50.414Z,99709.75
2022-09-17T04:31:18.052Z,99714.38
2022-09-17T04:33:45.774Z,99726.75
2022-09-17T04:36:13.234Z,99741.66
2022-09-17T04:38:40.789Z,99763.38
2022-09-17T04:41:08.987Z,99778.75
2022-09-17T04:43:37.056Z,99783.41
2022-09-17T04:46:05.142Z,99787.88
2022-09-17T04:48:33.161Z,99804.91
2022-09-17T04:51:00.626Z,99814.19
2022-09-17T04:53:28.788Z,99830.91
2022-09-17T04:55:56.293Z,99829.06
2022-09-17T04:58:24.236Z,99849.81
2022-09-17T05:00:52.269Z,99856.91
2022-09-17T05:03:20.475Z,99856.44
2022-09-17T05:05:48.531Z,99838.53
2022-09-17T05:08:16.036Z,99821.78
2022-09-17T05:10:43.490Z,99796.97
2022-09-17T05:13:12.035Z,99787.44
2022-09-17T05:15:39.635Z,99768.38
2022-09-17T05:18:07.106Z,99755.63
2022-09-17T05:20:34.622Z,99773.41
2022-09-17T05:23:02.265Z,99775.09
2022-09-17T05:25:29.920Z,99773.09
2022-09-17T05:27:57.440Z,99783.16
2022-09-17T05:30:25.912Z,99788.25
2022-09-17T05:33:04.088Z,99787.00
2022-09-17T05:35:32.469Z,99784.59
2022-09-17T05:38:01.585Z,99777.50
2022-09-17T05:40:30.790Z,99780.28
2022-09-17T05:43:00.070Z,99783.34
2022-09-17T05:45:28.121Z,99792.06
2022-09-17T05:48:00.482Z,99796.44
2022-09-17T05:50:29.557Z,99801.72
2022-09-17T05:52:57.741Z,99808.19
2022-09-17T05:55:25.529Z,99807.69
2022-09-17T05:57:53.549Z,99798.03
2022-09-17T06:00:21.262Z,99810.03
2022-09-17T06:02:58.503Z,99813.25
2022-09-17T06:05:26.674Z,99818.16
2022-09-17T06:07:54.351Z,99832.66
2022-09-17T06:10:22.372Z,99852.34
2022-09-17T06:12:56.588Z,99850.59
2022-09-17T06:15:24.815Z,99849.66
2022-09-17T06:17:52.881Z,99860.66
2022-09-17T06:20:21.275Z,99881.44
2022-09-17T06:22:49.321Z,99897.69
2022-09-17T06:25:17.270Z,99913.47
2022-09-17T06:27:44.864Z,99918.75
2022-09-17T06:30:12.985Z,99941.78
2022-09-17T06:32:40.616Z,99957.38
2022-09-17T06:35:08.650Z,99962.72
2022-09-17T06:37:40.303Z,99979.38
2022-09-17T06:40:09.166Z,99995.84
2022-09-17T06:42:36.898Z,99996.59
2022-09-17T06:45:09.314Z,100008.34
2022-09-17T06:47:38.831Z,100010.69
2022-09-17T06:50:07.530Z,100011.63
2022-09-17T06:52:35.717Z,100010.16
2022-09-17T06:55:03.437Z,100024.47
2022-09-17T06:57:31.445Z,100031.50
2022-09-17T06:59:59.371Z,100037.25
2022-09-17T07:02:27.557Z,100042.03
2022-09-17T07:04:55.438Z,100049.81
2022-09-17T07:07:23.455Z,100062.66
2022-09-17T07:09:50.994Z,100090.72
2022-09-17T07:12:18.879Z,100105.66
2022-09-17T07:14:47.676Z,100124.31
2022-09-17T07:17:15.705Z,100124.22
2022-09-17T07:19:43.648Z,100134.28
2022-09-17T07:22:11.129Z,100140.44
2022-09-17T07:24:38.739Z,100152.84
2022-09-17T07:27:06.310Z,100160.50
2022-09-17T07:29:33.799Z,100181.56
2022-09-17T07:32:02.003Z,100189.44
2022-09-17T07:34:29.906Z,100183.03
2022-09-17T07:36:57.463Z,100170.47
2022-09-17T07:39:25.077Z,100171.06
2022-09-17T07:41:53.031Z,100159.38
2022-09-17T07:44:22.218Z,100162.47
2022-09-17T07:46:50.261Z,100160.00
2022-09-17T07:49:18.215Z,100147.66
2022-09-17T07:51:45.921Z,100138.13
2022-09-17T07:54:13.643Z,100106.84
2022-09-17T07:56:41.146Z,100091.53
2022-09-17T07:59:09.618Z,100080.56
2022-09-17T08:01:37.753Z,100080.28
2022-09-17T08:04:06.191Z,100075.28
2022-09-17T08:06:38.412Z,100083.03
2022-09-17T08:09:07.332Z,100054.38
2022-09-17T08:11:55.113Z,100055.56
2022-09-17T08:14:27.014Z,100038.72
2022-09-17T08:16:57.932Z,100040.53
2022-09-17T08:19:28.241Z,100037.34
2022-09-17T08:21:56.556Z,100016.91
2022-09-17T08:24:24.488Z,100032.03
2022-09-17T08:26:52.091Z,100029.88
2022-09-17T08:29:19.764Z,100026.34
2022-09-17T08:31:48.329Z,100036.06
2022-09-17T08:34:16.405Z,100031.84
2022-09-17T08:36:43.858Z,100043.03
2022-09-17T08:39:12.279Z,100065.53
2022-09-17T08:41:46.097Z,100082.22
2022-09-17T08:44:30.808Z,100098.22
2022-09-17T08:47:06.502Z,100124.94
2022-09-17T08:49:35.448Z,100141.22
2022-09-17T08:52:18.566Z,100170.38
2022-09-17T08:54:53.059Z,100181.56
2022-09-17T08:57:38.943Z,100179.50
2022-09-17T09:00:16.800Z,100173.59
2022-09-17T09:02:48.694Z,100181.94
2022-09-17T09:05:30.348Z,100175.56
2022-09-17T09:08:12.141Z,100167.31
2022-09-17T09:10:55.473Z,100173.41
2022-09-17T09:13:29.356Z,100187.19
2022-09-17T09:16:04.624Z,100188.75
2022-09-17T09:18:39.028Z,100203.72
2022-09-17T09:21:21.760Z,100221.72
2022-09-17T09:24:05.768Z,100234.97
2022-09-17T09:26:45.134Z,100228.34
2022-09-17T09:29:37.294Z,100221.78
2022-09-17T09:32:26.954Z,100219.13
2022-09-17T09:34:56.710Z,100228.69
2022-09-17T09:37:32.167Z,100242.66
2022-09-17T09:40:28.858Z,100260.06
2022-09-17T09:43:01.487Z,100274.91
2022-09-17T09:45:44.338Z,100279.44
2022-09-17T09:48:33.137Z,100288.91
2022-09-17T09:51:10.096Z,100291.47
2022-09-17T09:54:02.119Z,100294.63
2022-09-17T09:56:55.389Z,100289.22
2022-09-17T09:59:23.256Z,100298.16
2022-09-17T10:01:51.259Z,100300.09
2022-09-17T10:04:25.363Z,100304.28
2022-09-17T10:06:55.409Z,100318.09
2022-09-17T10:09:22.999Z,100315.53
2022-09-17T10:12:16.254Z,100318.28
2022-09-17T10:14:46.551Z,100314.59
2022-09-17T10:17:21.678Z,100320.38
2022-09-17T10:20:12.237Z,100322.75
2022-09-17T10:22:42.719Z,100311.41
2022-09-17T10:25:30.640Z,100314.16
2022-09-17T10:28:01.736Z,100323.09
2022-09-17T10:30:31.023Z,100325.19
2022-09-17T10:33:17.780Z,100321.25
2022-09-17T10:35:58.304Z,100322.44
2022-09-17T10:38:57.333Z,100332.72
2022-09-17T10:41:25.898Z,100338.03
2022-09-17T10:43:53.746Z,100340.84
2022-09-17T10:46:28.096Z,100346.50
2022-09-17T10:49:12.483Z,100349.66
2022-09-17T10:51:40.312Z,100339.53
2022-09-17T10:54:16.652Z,100333.63
2022-09-17T10:56:53.613Z,100331.84
2022-09-17T10:59:45.944Z,100335.22
2022-09-17T11:02:25.933Z,100324.25
2022-09-17T11:05:16.695Z,100329.22
2022-09-17T11:08:01.048Z,100337.72
2022-09-17T11:10:36.980Z,100341.34
2022-09-17T11:13:16.581Z,100340.75
2022-09-17T11:16:11.692Z,100341.69
2022-09-17T11:18:43.483Z,100344.84
2022-09-17T11:21:20.532Z,100350.94
2022-09-17T11:24:02.509Z,100340.06
2022-09-17T11:26:39.246Z,100339.84
2022-09-17T11:29:30.218Z,100331.63
2022-09-17T11:32:01.414Z,100336.13
2022-09-17T11:34:39.079Z,100340.72
2022-09-17T11:37:20.618Z,100336.16
2022-09-17T11:39:59.697Z,100339.91
2022-09-17T11:42:51.163Z,100341.81
2022-09-17T11:45:21.039Z,100338.38
2022-09-17T11:47:57.495Z,100327.78
2022-09-17T11:50:33.689Z,100322.38
2022-09-17T11:53:03.940Z,100331.09
2022-09-17T11:55:40.470Z,100327.66
2022-09-17T11:58:26.854Z,100329.94
2022-09-17T12:01:04.228Z,100329.13
2022-09-17T12:03:41.542Z,100327.66
2022-09-17T12:06:14.816Z,100342.53
2022-09-17T12:09:03.588Z,100340.69
2022-09-17T12:11:38.281Z,100341.19
2022-09-17T12:14:16.602Z,100342.03
2022-09-17T12:16:48.675Z,100342.91
2022-09-17T12:19:46.392Z,100338.97
2022-09-17T12:22:26.946Z,100337.31
2022-09-17T12:24:55.577Z,100339.34
2022-09-17T12:27:35.099Z,100342.38
2022-09-17T12:30:23.037Z,100352.00
2022-09-17T12:32:56.985Z,100352.72
2022-09-17T12:36:05.819Z,100357.91
2022-09-17T12:38:53.669Z,100362.63
2022-09-17T12:41:46.362Z,100359.44
2022-09-17T12:44:54.998Z,100353.28
2022-09-17T12:47:22.862Z,100360.69
2022-09-17T12:50:02.221Z,100353.72
2022-09-17T12:53:12.253Z,100358.47
2022-09-17T12:55:48.047Z,100362.44
2022-09-17T12:59:01.070Z,100355.53
2022-09-17T13:01:37.127Z,100368.50
2022-09-17T13:04:59.485Z,100353.59
2022-09-17T13:07:34.566Z,100377.50
2022-09-17T13:10:17.261Z,100361.25
2022-09-17T13:12:53.368Z,100368.41
2022-09-17T13:15:50.526Z,100358.34
2022-09-17T13:18:31.634Z,100363.13
2022-09-17T13:21:08.121Z,100354.47
2022-09-17T13:23:45.883Z,100358.56
2022-09-17T13:26:19.189Z,100374.44
2022-09-17T13:28:50.002Z,100372.84
2022-09-17T13:31:36.103Z,100366.66
2022-09-17T13:34:04.707Z,100359.44
2022-09-17T13:36:40.343Z,100356.31
2022-09-17T13:39:34.068Z,100344.16
2022-09-17T13:42:08.171Z,100355.78
2022-09-17T13:44:40.105Z,100356.91
2022-09-17T13:47:17.782Z,100351.66
2022-09-17T13:49:51.940Z,100359.00
2022-09-17T13:52:37.236Z,100362.00
2022-09-17T13:55:06.819Z,100350.03
2022-09-17T13:57:50.686Z,100354.22
2022-09-17T14:00:47.601Z,100357.63
2022-09-17T14:03:31.265Z,100365.38
2022-09-17T14:06:05.545Z,100352.03
2022-09-17T14:08:46.646Z,100356.00
2022-09-17T14:11:34.446Z,100357.97
2022-09-17T14:14:04.755Z,100355.56
2022-09-17T14:16:50.390Z,100355.19
2022-09-17T14:19:24.282Z,100340.28
2022-09-17T14:21:57.541Z,100354.66
2022-09-17T14:24:27.513Z,100355.53
2022-09-17T14:27:13.868Z,100359.38
2022-09-17T14:30:00.287Z,100363.44
2022-09-17T14:32:42.415Z,100357.38
2022-09-17T14:35:38.896Z,100356.22
2022-09-17T14:38:15.272Z,100350.94
2022-09-17T14:40:46.306Z,100349.41
2022-09-17T14:43:54.753Z,100349.13
2022-09-17T14:46:30.470Z,100357.41
2022-09-17T14:49:24.442Z,100340.66
2022-09-17T14:51:53.880Z,100344.34
2022-09-17T14:54:26.594Z,100333.91
2022-09-17T14:56:58.916Z,100338.66
2022-09-17T14:59:43.804Z,100341.78
2022-09-17T15:02:30.451Z,100349.78
2022-09-17T15:04:58.883Z,100347.53
2022-09-17T15:07:27.037Z,100351.06
2022-09-17T15:10:06.019Z,100350.41
2022-09-17T15:12:33.725Z,100341.50
2022-09-17T15:15:01.506Z,100342.19
2022-09-17T15:17:31.088Z,100344.72
2022-09-17T15:19:59.475Z,100348.66
2022-09-17T15:22:29.124Z,100357.84
2022-09-17T15:25:04.277Z,100366.28
2022-09-17T15:27:35.831Z,100368.91
2022-09-17T15:30:09.842Z,100365.09
2022-09-17T15:32:38.815Z,100355.97
2022-09-17T15:35:15.811Z,100356.34
2022-09-17T15:37:46.681Z,100352.06
2022-09-17T15:40:27.783Z,100348.63
2022-09-17T15:43:03.227Z,100358.06
2022-09-17T15:45:39.215Z,100357.00
2022-09-17T15:48:10.933Z,100368.66
2022-09-17T15:50:53.149Z,100377.78
2022-09-17T15:53:26.678Z,100374.13
2022-09-17T15:56:13.243Z,100382.00
2022-09-17T15:58:46.821Z,100377.91
2022-09-17T16:01:14.213Z,100382.84
2022-09-17T16:03:42.134Z,100390.06
2022-09-17T16:06:18.639Z,100385.38
2022-09-17T16:08:47.720Z,100383.91
2022-09-17T16:11:21.678Z,100383.59
2022-09-17T16:13:51.029Z,100378.44
2022-09-17T16:16:32.133Z,100381.94
2022-09-17T16:19:00.241Z,100385.34
2022-09-17T16:21:29.141Z,100387.03
2022-09-17T16:23:58.165Z,100392.69
2022-09-17T16:26:29.916Z,100396.38
2022-09-17T16:29:06.296Z,100394.06
2022-09-17T16:31:34.443Z,100391.88
2022-09-17T16:34:02.096Z,100391.53
2022-09-17T16:36:32.001Z,100398.22
2022-09-17T16:39:01.156Z,100400.69
2022-09-17T16:41:28.623Z,100400.16
2022-09-17T16:43:56.227Z,100407.97
2022-09-17T16:46:23.743Z,100407.81
2022-09-17T16:48:51.323Z,100410.63
2022-09-17T16:51:19.643Z,100403.66
2022-09-17T16:53:47.255Z,100401.31
2022-09-17T16:56:15.714Z,100403.63
2022-09-17T16:58:43.526Z,100401.94
2022-09-17T17:01:14.587Z,100390.94
2022-09-17T17:03:42.668Z,100392.63
2022-09-17T17:06:20.806Z,100392.91
2022-09-17T17:08:49.391Z,100400.03
2022-09-17T17:11:17.360Z,100402.03
2022-09-17T17:13:45.462Z,100402.91
2022-09-17T17:16:15.415Z,100403.72
2022-09-17T17:18:44.194Z,100407.69
2022-09-17T17:21:14.044Z,100414.00
2022-09-17T17:23:43.815Z,100409.63
2022-09-17T17:26:11.618Z,100416.56
2022-09-17T17:28:39.577Z,100423.28
2022-09-17T17:31:07.066Z,100428.78
2022-09-17T17:33:35.612Z,100432.31
2022-09-17T17:36:08.138Z,100431.81
2022-09-17T17:38:36.887Z,100432.81
2022-09-17T17:41:13.366Z,100440.81
2022-09-17T17:43:42.223Z,100433.75
2022-09-17T17:46:11.616Z,100446.28
2022-09-17T17:48:39.531Z,100451.09
2022-09-17T17:51:09.015Z,100456.16
2022-09-17T17:53:37.209Z,100454.16
2022-09-17T17:56:08.007Z,100457.69
2022-09-17T17:58:36.631Z,100456.59
2022-09-17T18:01:16.374Z,100461.75
2022-09-17T18:03:44.559Z,100466.00
2022-09-17T18:06:12.863Z,100465.44
2022-09-17T18:08:43.427Z,100473.81
2022-09-17T18:11:12.397Z,100468.84
2022-09-17T18:13:40.405Z,100472.81
2022-09-17T18:16:10.685Z,100469.25
2022-09-17T18:18:44.850Z,100468.94
2022-09-17T18:21:16.270Z,100468.03
2022-09-17T18:23:44.847Z,100475.84
2022-09-17T18:26:14.897Z,100480.06
2022-09-17T18:28:42.597Z,100484.94
2022-09-17T18:31:27.979Z,100488.16
2022-09-17T18:34:00.844Z,100491.09
2022-09-17T18:36:30.526Z,100493.03
2022-09-17T18:39:32.327Z,100494.09
2022-09-17T18:41:50.814Z,100498.75
2022-09-17T18:44:21.808Z,100507.38
2022-09-17T18:46:51.238Z,100502.97
2022-09-17T18:49:19.310Z,100512.59
2022-09-17T18:51:47.218Z,100511.25
2022-09-17T18:54:15.267Z,100513.16
2022-09-17T18:56:43.415Z,100508.84
2022-09-17T18:59:11.164Z,100513.47
2022-09-17T19:01:39.769Z,100513.09
2022-09-17T19:04:07.846Z,100510.31
2022-09-17T19:06:36.454Z,100515.31
2022-09-17T19:09:05.106Z,100525.59
2022-09-17T19:11:35.640Z,100521.97
2022-09-17T19:14:03.356Z,100533.53
2022-09-17T19:16:31.178Z,100538.03
2022-09-17T19:18:58.699Z,100530.31
2022-09-17T19:21:26.749Z,100534.03
2022-09-17T19:23:54.642Z,100534.59
2022-09-17T19:26:25.395Z,100539.72
2022-09-17T19:28:54.587Z,100537.03
2022-09-17T19:31:22.495Z,100539.81
2022-09-17T19:33:51.719Z,100548.03
2022-09-17T19:36:22.724Z,100552.94
2022-09-17T19:38:50.338Z,100543.94
2022-09-17T19:41:20.372Z,100547.19
2022-09-17T19:43:54.228Z,100556.09
2022-09-17T19:46:24.303Z,100550.53
2022-09-17T19:48:54.630Z,100548.00
2022-09-17T19:51:24.576Z,100546.75
2022-09-17T19:53:52.899Z,100544.94
2022-09-17T19:56:23.306Z,100549.66
2022-09-17T19:58:51.945Z,100554.41
2022-09-17T20:01:20.258Z,100550.94
2022-09-17T20:03:48.555Z,100548.56
2022-09-17T20:06:18.073Z,100559.44
2022-09-17T20:08:51.647Z,100559.72
2022-09-17T20:11:21.544Z,100567.09
2022-09-17T20:13:49.570Z,100566.94
2022-09-17T20:16:20.167Z,100563.34
2022-09-17T20:18:49.233Z,100565.03
2022-09-17T20:21:20.502Z,100570.75
2022-09-17T20:23:48.423Z,100567.94
2022-09-17T20:26:16.765Z,100581.34
2022-09-17T20:28:44.853Z,100585.34
2022-09-17T20:31:15.199Z,100584.94
2022-09-17T20:33:43.596Z,100588.25
2022-09-17T20:36:19.305Z,100589.22
2022-09-17T20:41:37.931Z,100595.09
2022-09-17T20:44:06.919Z,100586.47
2022-09-17T20:46:35.010Z,100591.75
2022-09-17T20:49:03.214Z,100589.09
2022-09-17T20:51:33.361Z,100590.25
2022-09-17T20:54:01.832Z,100591.91
2022-09-17T20:56:33.220Z,100591.06
2022-09-17T20:59:14.456Z,100592.19
2022-09-17T21:01:45.613Z,100599.56
2022-09-17T21:04:18.982Z,100607.34
2022-09-17T21:06:48.020Z,100597.88
2022-09-17T21:09:16.721Z,100601.38
2022-09-17T21:11:46.359Z,100601.38
2022-09-17T21:14:15.936Z,100616.00
2022-09-17T21:16:44.800Z,100609.88
2022-09-17T21:19:16.267Z,100618.19
2022-09-17T21:21:44.684Z,100615.84
2022-09-17T21:24:12.424Z,100620.72
2022-09-17T21:26:40.102Z,100625.59
2022-09-17T21:29:08.195Z,100613.75
2022-09-17T21:31:37.427Z,100614.16
2022-09-17T21:34:07.801Z,100622.94
2022-09-17T21:36:37.321Z,100615.69
2022-09-17T21:39:09.665Z,100620.13
2022-09-17T21:41:41.597Z,100619.56
2022-09-17T21:44:11.835Z,100628.19
2022-09-17T21:46:41.876Z,100627.22
2022-09-17T21:49:10.296Z,100632.91
2022-09-17T21:51:39.549Z,100627.63
2022-09-17T21:54:12.533Z,100628.78
2022-09-17T21:56:40.772Z,100629.47
2022-09-17T21:59:11.175Z,100628.63
2022-09-17T22:01:41.391Z,100628.78
2022-09-17T22:04:12.588Z,100636.81
2022-09-17T22:06:41.636Z,100625.78
2022-09-17T22:09:15.095Z,100629.56
2022-09-17T22:11:42.635Z,100633.50
2022-09-17T22:14:13.115Z,100625.19
2022-09-17T22:16:43.861Z,100624.19
2022-09-17T22:19:14.973Z,100629.94
2022-09-17T22:21:47.265Z,100623.50
2022-09-17T22:24:16.783Z,100619.31
2022-09-17T22:26:47.581Z,100620.16
2022-09-17T22:29:19.297Z,100620.56
2022-09-17T22:31:47.499Z,100628.78
2022-09-17T22:34:18.465Z,100628.84
2022-09-17T22:36:47.027Z,100620.81
2022-09-17T22:39:14.631Z,100617.88
2022-09-17T22:41:45.367Z,100625.22
2022-09-17T22:44:18.615Z,100620.91
2022-09-17T22:46:48.457Z,100627.97
2022-09-17T22:49:16.701Z,100628.91
2022-09-17T22:51:47.138Z,100623.78
2022-09-17T22:54:16.861Z,100627.41
2022-09-17T22:56:45.111Z,100625.97
2022-09-17T22:59:13.067Z,100634.63
2022-09-17T23:01:41.352Z,100628.81
2022-09-17T23:04:09.685Z,100630.06
2022-09-17T23:06:39.359Z,100627.38
2022-09-17T23:09:07.392Z,100620.72
2022-09-17T23:11:38.819Z,100617.84
2022-09-17T23:14:09.603Z,100623.72
2022-09-17T23:16:39.870Z,100621.56
2022-09-17T23:19:08.349Z,100617.53
2022-09-17T23:21:36.894Z,100617.22
2022-09-17T23:24:04.556Z,100621.56
2022-09-17T23:26:32.073Z,100627.13
2022-09-17T23:29:05.019Z,100623.13
2022-09-17T23:31:35.170Z,100635.47
2022-09-17T23:34:04.910Z,100637.22
2022-09-17T23:36:38.327Z,100640.38
2022-09-17T23:39:07.642Z,100642.94
2022-09-17T23:41:38.823Z,100647.72
2022-09-17T23:44:14.452Z,100646.91
2022-09-17T23:46:44.291Z,100644.31
2022-09-17T23:49:13.636Z,100654.59
2022-09-17T23:51:42.177Z,100658.88
2022-09-17T23:54:10.775Z,100663.50
2022-09-17T23:56:38.734Z,100662.16
2022-09-17T23:59:07.439Z,100656.84
